createdAt,value
2023-03-31T06:02:46.909Z,99048.69
2023-03-31T06:05:50.128Z,99056.69
2023-03-31T06:08:52.849Z,99044.63
2023-03-31T06:16:17.253Z,99059.09
2023-03-31T06:19:20.050Z,99057.03
2023-03-31T06:22:23.870Z,99055.72
2023-03-31T06:25:29.224Z,99071.47
2023-03-31T06:28:34.065Z,99081.22
2023-03-31T06:31:38.947Z,99080.63
2023-03-31T06:34:41.425Z,99077.25
2023-03-31T06:37:43.853Z,99070.38
2023-03-31T06:40:46.468Z,99066.91
2023-03-31T06:43:49.110Z,99065.69
2023-03-31T06:46:52.936Z,99078.09
2023-03-31T06:49:55.572Z,99078.09
2023-03-31T06:52:58.819Z,99070.78
2023-03-31T06:56:01.694Z,99062.22
2023-03-31T06:59:04.240Z,99066.19
2023-03-31T07:02:08.565Z,99056.25
2023-03-31T07:05:11.613Z,99058.03
2023-03-31T07:08:14.146Z,99214.91
2023-03-31T07:11:16.663Z,99076.91
2023-03-31T07:14:19.292Z,99071.13
2023-03-31T07:17:25.385Z,99062.84
2023-03-31T07:20:27.939Z,99070.53
2023-03-31T07:23:30.480Z,99060.56
2023-03-31T07:26:33.217Z,99064.00
2023-03-31T07:29:35.738Z,99065.19
2023-03-31T07:32:40.173Z,99070.56
2023-03-31T07:35:42.986Z,99057.28
2023-03-31T07:38:49.076Z,99058.78
2023-03-31T07:41:51.505Z,99059.59
2023-03-31T07:44:54.021Z,99058.47
2023-03-31T07:47:57.827Z,99059.75
2023-03-31T07:51:00.489Z,99056.81
2023-03-31T07:54:02.952Z,99054.59
2023-03-31T07:57:06.314Z,99049.06
2023-03-31T08:00:12.452Z,99038.28
2023-03-31T08:03:16.529Z,99037.28
2023-03-31T08:06:19.579Z,99031.72
2023-03-31T08:09:22.730Z,99026.50
2023-03-31T08:12:25.443Z,99019.31
2023-03-31T08:15:28.079Z,99016.03
2023-03-31T08:18:32.142Z,99026.56
2023-03-31T08:21:34.597Z,99026.88
2023-03-31T08:24:37.004Z,99018.31
2023-03-31T08:27:41.140Z,99017.03
2023-03-31T08:30:43.802Z,99006.66
2023-03-31T08:33:48.301Z,98996.34
2023-03-31T08:36:50.699Z,99000.47
2023-03-31T08:39:53.257Z,99000.03
2023-03-31T08:42:59.402Z,98994.03
2023-03-31T08:46:04.479Z,98993.63
2023-03-31T08:49:11.809Z,98983.22
2023-03-31T08:52:18.426Z,98984.94
2023-03-31T08:55:25.554Z,98980.53
2023-03-31T08:58:39.365Z,98976.22
2023-03-31T09:01:55.637Z,98975.25
2023-03-31T09:05:29.057Z,98966.50
2023-03-31T09:08:37.501Z,98959.53
2023-03-31T09:11:48.805Z,98951.72
2023-03-31T09:14:59.010Z,98957.66
2023-03-31T09:18:18.060Z,98957.75
2023-03-31T09:21:26.343Z,98952.88
2023-03-31T09:24:32.764Z,98949.25
2023-03-31T09:27:37.227Z,98948.59
2023-03-31T09:30:42.230Z,99028.84
2023-03-31T09:33:46.744Z,99011.09
2023-03-31T09:36:50.786Z,99009.41
2023-03-31T09:39:53.225Z,99002.56
2023-03-31T09:42:59.654Z,99002.00
2023-03-31T09:46:09.762Z,99002.28
2023-03-31T09:49:16.356Z,98997.94
2023-03-31T09:52:29.768Z,98996.47
2023-03-31T09:55:42.947Z,98990.72
2023-03-31T09:58:47.077Z,98987.03
2023-03-31T10:01:53.717Z,98973.94
2023-03-31T10:04:56.663Z,98971.66
2023-03-31T10:08:20.171Z,98957.03
2023-03-31T10:11:23.451Z,98963.09
2023-03-31T10:14:28.929Z,98954.06
2023-03-31T10:17:43.562Z,98948.94
2023-03-31T10:20:54.836Z,98942.34
2023-03-31T10:24:01.292Z,98941.22
2023-03-31T10:27:06.934Z,98936.13
2023-03-31T10:30:12.902Z,98932.34
2023-03-31T10:33:23.213Z,98932.75
2023-03-31T10:36:29.160Z,98935.75
2023-03-31T10:39:33.754Z,98917.28
2023-03-31T10:42:36.595Z,98929.38
2023-03-31T10:45:44.167Z,98912.97
2023-03-31T10:48:47.013Z,98926.13
2023-03-31T10:51:51.270Z,98918.19
2023-03-31T10:54:59.175Z,98907.75
2023-03-31T10:58:06.871Z,98896.66
2023-03-31T11:01:23.652Z,98885.25
2023-03-31T11:04:43.791Z,98876.50
2023-03-31T11:08:00.174Z,98875.97
2023-03-31T11:11:27.950Z,98867.31
2023-03-31T11:14:46.150Z,98861.44
2023-03-31T11:18:02.569Z,98857.06
2023-03-31T11:21:17.946Z,98856.22
2023-03-31T11:24:33.902Z,98846.31
2023-03-31T11:27:55.491Z,98842.81
2023-03-31T11:31:11.436Z,98829.09
2023-03-31T11:34:44.312Z,98803.88
2023-03-31T11:38:05.334Z,98797.06
2023-03-31T11:41:12.229Z,98796.91
2023-03-31T11:44:19.586Z,98785.88
2023-03-31T11:47:26.007Z,98789.69
2023-03-31T11:50:32.650Z,98780.63
2023-03-31T11:53:38.256Z,98785.22
2023-03-31T11:56:42.089Z,98772.56
2023-03-31T11:59:54.957Z,98772.59
2023-03-31T12:03:04.480Z,98760.47
2023-03-31T12:06:17.172Z,99219.50
2023-03-31T12:09:26.524Z,98798.84
2023-03-31T12:12:31.673Z,98800.16
2023-03-31T12:15:40.607Z,98802.53
2023-03-31T12:18:48.860Z,98798.50
2023-03-31T12:21:53.985Z,98799.44
2023-03-31T12:24:56.610Z,98796.09
2023-03-31T12:28:00.444Z,98807.63
2023-03-31T12:31:07.608Z,98786.91
2023-03-31T12:34:14.824Z,98801.78
2023-03-31T12:37:58.634Z,98776.97
2023-03-31T12:41:11.691Z,98768.91
2023-03-31T12:44:37.027Z,98762.50
2023-03-31T12:47:59.101Z,98760.72
2023-03-31T12:51:15.331Z,98758.69
2023-03-31T12:54:35.685Z,98751.28
2023-03-31T12:57:38.217Z,98750.84
2023-03-31T13:01:07.693Z,98742.88
2023-03-31T13:04:21.232Z,98743.78
2023-03-31T13:07:40.439Z,98736.59
2023-03-31T13:10:57.382Z,98729.81
2023-03-31T13:14:02.894Z,98725.03
2023-03-31T13:17:21.894Z,98720.91
2023-03-31T13:20:38.081Z,98711.69
2023-03-31T13:23:47.247Z,98705.41
2023-03-31T13:26:50.085Z,98700.09
2023-03-31T13:29:52.499Z,98693.94
2023-03-31T13:33:06.134Z,98679.97
2023-03-31T13:36:51.141Z,98686.69
2023-03-31T13:40:20.189Z,98681.50
2023-03-31T13:43:55.495Z,98675.25
2023-03-31T13:47:17.662Z,98674.13
2023-03-31T13:50:50.783Z,98678.44
2023-03-31T13:54:29.250Z,98672.72
2023-03-31T13:57:57.704Z,98670.25
2023-03-31T14:01:19.014Z,98663.91
2023-03-31T14:04:52.577Z,98666.44
2023-03-31T14:07:59.657Z,98663.63
2023-03-31T14:11:18.191Z,98658.09
2023-03-31T14:14:20.654Z,98644.50
2023-03-31T14:17:27.628Z,98650.09
2023-03-31T14:20:37.046Z,98660.00
2023-03-31T14:23:50.608Z,98652.63
2023-03-31T14:27:01.590Z,98656.75
2023-03-31T14:30:13.907Z,98646.28
2023-03-31T14:33:34.221Z,98635.56
2023-03-31T14:36:46.748Z,98639.38
2023-03-31T14:39:54.994Z,98628.22
2023-03-31T14:42:57.595Z,98617.34
2023-03-31T14:46:01.745Z,98606.06
2023-03-31T14:49:08.335Z,98604.13
2023-03-31T14:52:16.771Z,98598.34
2023-03-31T14:55:31.659Z,98595.63
2023-03-31T14:58:45.755Z,98607.94
2023-03-31T15:01:50.111Z,98605.81
2023-03-31T15:04:52.995Z,98606.19
2023-03-31T15:07:58.639Z,98600.91
2023-03-31T15:14:13.750Z,98603.00
2023-03-31T15:17:21.548Z,98601.06
2023-03-31T15:20:32.099Z,98610.09
2023-03-31T15:23:41.492Z,98598.53
2023-03-31T15:26:50.867Z,98592.66
2023-03-31T15:29:57.222Z,98590.34
2023-03-31T15:33:11.706Z,98584.81
2023-03-31T15:36:18.513Z,98589.84
2023-03-31T15:39:21.517Z,98587.19
2023-03-31T15:42:26.238Z,98576.91
2023-03-31T15:45:46.272Z,98577.06
2023-03-31T15:48:54.632Z,98567.63
2023-03-31T15:52:00.421Z,98567.63
2023-03-31T15:55:23.395Z,98568.13
2023-03-31T15:58:48.395Z,98562.84
2023-03-31T16:01:51.934Z,98559.09
2023-03-31T16:04:59.251Z,98558.66
2023-03-31T16:08:02.775Z,98561.28
2023-03-31T16:11:11.075Z,98558.94
2023-03-31T16:14:19.985Z,98553.66
2023-03-31T16:17:29.785Z,98556.97
2023-03-31T16:20:37.071Z,98555.09
2023-03-31T16:23:41.734Z,98560.66
2023-03-31T16:26:44.658Z,98553.97
2023-03-31T16:29:48.512Z,98543.09
2023-03-31T16:33:02.682Z,98547.78
2023-03-31T16:36:05.989Z,98546.38
2023-03-31T16:39:08.994Z,98542.41
2023-03-31T16:42:11.587Z,98538.22
2023-03-31T16:45:15.561Z,98542.66
2023-03-31T16:48:19.622Z,98539.19
2023-03-31T16:51:23.331Z,98540.38
2023-03-31T16:54:26.388Z,98529.66
2023-03-31T16:57:29.194Z,98523.16
2023-03-31T17:00:35.634Z,98524.50
2023-03-31T17:03:41.579Z,98530.97
2023-03-31T17:06:44.889Z,98528.34
2023-03-31T17:09:47.405Z,98523.44
2023-03-31T17:12:49.902Z,98516.31
2023-03-31T17:19:18.146Z,98521.34
2023-03-31T17:22:20.851Z,98515.25
2023-03-31T18:34:39.118Z,98499.03
2023-03-31T18:37:41.608Z,98498.56
2023-03-31T18:40:48.806Z,98503.34
2023-03-31T18:43:52.231Z,98506.81
2023-03-31T18:46:54.763Z,98504.91
2023-03-31T18:49:58.623Z,98512.81
2023-03-31T18:53:01.130Z,98510.88
2023-03-31T18:56:03.626Z,98510.06
2023-03-31T18:59:06.176Z,98511.97
2023-03-31T19:02:08.707Z,98509.09
2023-03-31T19:05:12.629Z,98519.03
2023-03-31T19:08:15.151Z,98520.72
2023-03-31T19:11:18.056Z,98524.19
2023-03-31T19:14:20.841Z,98519.03
